createdAt,value
2023-02-22T00:03:16.645Z,22.48
2023-02-22T00:08:19.484Z,22.50
2023-02-22T00:13:23.808Z,22.49
2023-02-22T00:18:28.734Z,22.50
2023-02-22T00:23:32.984Z,22.56
2023-02-22T00:28:37.344Z,22.56
2023-02-22T00:33:41.130Z,22.58
2023-02-22T00:38:43.920Z,22.48
2023-02-22T00:43:49.073Z,22.49
2023-02-22T00:48:51.922Z,22.55
2023-02-22T00:53:54.682Z,22.58
2023-02-22T00:58:58.817Z,22.44
2023-02-22T01:04:01.552Z,22.56
2023-02-22T01:09:05.299Z,22.57
2023-02-22T01:14:09.849Z,22.60
2023-02-22T01:19:12.891Z,22.59
2023-02-22T01:24:16.590Z,22.58
2023-02-22T01:29:22.074Z,22.51
2023-02-22T01:34:25.971Z,22.49
2023-02-22T01:39:28.754Z,22.56
2023-02-22T01:44:36.135Z,22.53
2023-02-22T01:49:44.181Z,22.50
2023-02-22T01:54:51.019Z,22.55
2023-02-22T02:00:01.666Z,22.57
2023-02-22T02:05:08.213Z,22.54
2023-02-22T02:10:14.430Z,22.51
2023-02-22T02:15:26.478Z,22.49
2023-02-22T02:20:35.953Z,22.55
2023-02-22T02:26:11.800Z,22.57
2023-02-22T02:31:47.968Z,22.44
2023-02-22T02:37:02.822Z,22.52
2023-02-22T02:42:12.078Z,22.58
2023-02-22T02:47:20.348Z,22.60
2023-02-22T02:52:27.429Z,22.59
2023-02-22T02:57:30.176Z,22.52
2023-02-22T03:02:46.261Z,22.55
2023-02-22T03:08:02.325Z,22.59
2023-02-22T03:13:11.682Z,22.52
2023-02-22T03:18:22.723Z,22.59
2023-02-22T03:23:32.582Z,22.55
2023-02-22T03:28:37.392Z,22.57
2023-02-22T03:33:44.220Z,22.54
2023-02-22T03:38:50.993Z,22.58
2023-02-22T03:43:59.656Z,22.50
2023-02-22T03:49:08.904Z,22.52
2023-02-22T03:54:16.772Z,22.40
2023-02-22T03:59:26.081Z,22.57
2023-02-22T04:04:29.223Z,22.58
2023-02-22T04:09:33.959Z,22.56
2023-02-22T04:14:36.954Z,22.60
2023-02-22T04:19:39.902Z,22.24
2023-02-22T04:24:45.307Z,22.59
2023-02-22T04:29:48.110Z,22.58
2023-02-22T04:34:51.229Z,22.51
2023-02-22T04:39:55.978Z,22.47
2023-02-22T04:44:58.890Z,22.56
2023-02-22T04:50:02.246Z,22.60
2023-02-22T04:55:08.469Z,22.58
2023-02-22T05:00:18.045Z,22.58
2023-02-22T05:05:22.297Z,22.58
2023-02-22T05:10:26.535Z,22.54
2023-02-22T05:15:29.316Z,22.54
2023-02-22T05:20:34.235Z,22.53
2023-02-22T05:25:38.625Z,22.54
2023-02-22T05:30:41.625Z,22.52
2023-02-22T05:35:44.500Z,22.47
2023-02-22T05:40:48.642Z,22.43
2023-02-22T05:45:51.497Z,22.41
2023-02-22T05:50:54.319Z,22.37
2023-02-22T05:55:58.555Z,22.32
2023-02-22T06:01:03.133Z,22.28
2023-02-22T06:06:06.539Z,22.22
2023-02-22T06:11:10.768Z,22.17
2023-02-22T06:16:13.726Z,22.10
2023-02-22T06:21:17.484Z,22.06
2023-02-22T06:26:22.880Z,22.01
2023-02-22T06:31:25.626Z,21.96
2023-02-22T06:36:28.422Z,21.89
2023-02-22T06:41:32.598Z,21.88
2023-02-22T06:46:35.421Z,21.85
2023-02-22T06:51:38.849Z,21.80
2023-02-22T06:56:42.981Z,21.77
2023-02-22T07:01:45.877Z,21.72
2023-02-22T07:06:49.599Z,21.67
2023-02-22T07:11:54.000Z,21.65
2023-02-22T07:16:56.717Z,21.60
2023-02-22T07:21:59.688Z,21.57
2023-02-22T07:27:03.782Z,21.53
2023-02-22T07:32:06.872Z,21.49
2023-02-22T07:37:09.762Z,21.47
2023-02-22T07:42:14.253Z,21.44
2023-02-22T07:47:17.000Z,21.42
2023-02-22T07:52:19.778Z,21.39
2023-02-22T07:57:24.000Z,21.37
2023-02-22T08:02:27.576Z,19.12
2023-02-22T08:07:30.383Z,18.06
2023-02-22T08:12:34.871Z,17.62
2023-02-22T08:17:38.444Z,17.46
2023-02-22T08:22:44.514Z,19.35
2023-02-22T08:27:49.366Z,20.03
2023-02-22T08:32:52.745Z,20.37
2023-02-22T08:37:57.460Z,20.58
2023-02-22T08:43:02.432Z,20.70
2023-02-22T08:48:05.801Z,20.78
2023-02-22T08:53:09.747Z,20.84
2023-02-22T08:58:14.190Z,20.55
2023-02-22T09:03:17.364Z,20.81
2023-02-22T09:08:20.182Z,20.89
2023-02-22T09:13:24.429Z,20.93
2023-02-22T09:18:42.337Z,20.95
2023-02-22T09:23:48.480Z,20.97
2023-02-22T09:28:52.642Z,20.99
2023-02-22T09:33:55.543Z,21.00
2023-02-22T09:38:59.077Z,21.01
2023-02-22T09:44:17.546Z,21.03
2023-02-22T09:49:24.997Z,21.03
2023-02-22T09:54:34.180Z,21.03
2023-02-22T09:59:43.351Z,21.03
2023-02-22T10:04:52.738Z,21.03
2023-02-22T10:09:57.259Z,21.02
2023-02-22T10:15:29.801Z,21.01
2023-02-22T10:20:43.865Z,21.03
2023-02-22T10:25:53.758Z,21.03
2023-02-22T10:31:04.326Z,21.03
2023-02-22T10:36:16.773Z,21.04
2023-02-22T10:41:27.392Z,21.05
2023-02-22T10:46:34.585Z,21.06
2023-02-22T10:51:39.268Z,21.07
2023-02-22T10:56:48.802Z,21.09
2023-02-22T11:01:53.434Z,21.12
2023-02-22T11:07:10.954Z,21.14
2023-02-22T11:12:20.893Z,21.16
2023-02-22T11:17:31.436Z,21.20
2023-02-22T11:22:41.990Z,21.24
2023-02-22T11:27:46.977Z,21.28
2023-02-22T11:32:56.581Z,21.35
2023-02-22T11:38:12.738Z,21.37
2023-02-22T11:43:19.592Z,21.42
2023-02-22T11:48:23.833Z,21.41
2023-02-22T11:53:32.820Z,21.46
2023-02-22T11:58:45.698Z,21.41
2023-02-22T12:04:17.159Z,21.44
2023-02-22T12:09:28.039Z,21.45
2023-02-22T12:14:41.969Z,21.47
2023-02-22T12:19:50.122Z,21.50
2023-02-22T12:25:09.065Z,21.52
2023-02-22T12:30:20.199Z,21.58
2023-02-22T12:35:27.048Z,21.63
2023-02-22T12:40:36.547Z,21.68
2023-02-22T12:45:46.267Z,21.72
2023-02-22T12:50:55.136Z,21.77
2023-02-22T12:56:06.313Z,21.80
2023-02-22T13:01:20.004Z,21.85
2023-02-22T13:06:37.278Z,21.95
2023-02-22T13:11:48.348Z,22.09
2023-02-22T13:16:58.330Z,22.02
2023-02-22T13:22:07.576Z,21.96
2023-02-22T13:27:15.629Z,21.95
2023-02-22T13:32:30.480Z,21.93
2023-02-22T13:37:56.747Z,21.78
2023-02-22T13:43:16.133Z,21.73
2023-02-22T13:48:45.777Z,21.85
2023-02-22T13:53:56.096Z,21.87
2023-02-22T13:59:02.365Z,21.86
2023-02-22T14:04:22.779Z,21.87
2023-02-22T14:09:46.137Z,21.80
2023-02-22T14:15:29.734Z,21.93
2023-02-22T14:20:36.190Z,21.94
2023-02-22T14:25:43.345Z,21.81
2023-02-22T14:30:46.501Z,21.42
2023-02-22T14:35:51.093Z,21.68
2023-02-22T14:40:58.519Z,21.82
2023-02-22T14:46:05.306Z,21.92
2023-02-22T14:51:21.954Z,21.96
2023-02-22T14:56:36.153Z,22.01
2023-02-22T15:01:50.872Z,22.05
2023-02-22T15:07:00.871Z,22.06
2023-02-22T15:12:22.231Z,22.11
2023-02-22T15:17:25.974Z,22.18
2023-02-22T15:22:35.593Z,22.23
2023-02-22T15:27:45.856Z,22.27
2023-02-22T15:33:03.218Z,22.28
2023-02-22T15:38:19.950Z,22.25
2023-02-22T15:43:28.616Z,22.26
2023-02-22T15:48:33.217Z,22.26
2023-02-22T15:53:41.419Z,22.26
2023-02-22T15:58:48.316Z,22.27
2023-02-22T16:03:54.009Z,22.28
2023-02-22T16:08:59.814Z,22.27
2023-02-22T16:14:06.858Z,22.24
2023-02-22T16:19:33.554Z,22.25
2023-02-22T16:24:37.512Z,22.23
2023-02-22T16:29:41.857Z,22.24
2023-02-22T16:34:44.732Z,22.25
2023-02-22T16:39:47.558Z,22.25
2023-02-22T16:44:52.518Z,22.25
2023-02-22T16:49:57.018Z,22.24
2023-02-22T16:55:01.880Z,22.23
2023-02-22T17:00:09.721Z,22.26
2023-02-22T17:05:15.102Z,22.25
2023-02-22T17:10:18.925Z,22.30
2023-02-22T17:15:25.618Z,22.30
2023-02-22T17:20:30.942Z,22.31
2023-02-22T17:25:37.576Z,22.10
2023-02-22T17:30:43.965Z,22.24
2023-02-22T17:35:47.905Z,22.29
2023-02-22T17:40:51.994Z,22.32
2023-02-22T17:45:56.820Z,22.30
2023-02-22T17:50:59.669Z,22.31
2023-02-22T17:56:06.566Z,22.31
2023-02-22T18:01:20.961Z,22.30
2023-02-22T18:06:28.278Z,22.30
2023-02-22T18:11:32.644Z,22.30
2023-02-22T18:16:38.925Z,22.28
2023-02-22T18:21:41.746Z,22.26
2023-02-22T18:26:44.565Z,22.30
2023-02-22T18:31:48.758Z,22.27
2023-02-22T18:36:51.701Z,22.27
2023-02-22T18:41:54.519Z,22.28
2023-02-22T18:46:58.714Z,22.26
2023-02-22T18:52:01.594Z,22.27
2023-02-22T18:57:04.430Z,22.27
2023-02-22T19:02:13.642Z,22.27
2023-02-22T19:07:18.247Z,22.26
2023-02-22T19:12:21.194Z,22.24
2023-02-22T19:17:26.497Z,22.26
2023-02-22T19:22:32.743Z,22.23
2023-02-22T19:27:35.606Z,22.24
2023-02-22T19:32:44.612Z,22.23
2023-02-22T19:37:48.055Z,22.22
2023-02-22T19:42:53.144Z,22.24
2023-02-22T19:47:57.583Z,22.21
2023-02-22T19:53:00.602Z,22.21
2023-02-22T19:58:03.536Z,22.19
2023-02-22T20:03:09.231Z,22.20
2023-02-22T20:08:12.049Z,22.23
2023-02-22T20:13:16.995Z,22.18
2023-02-22T20:18:23.001Z,22.22
2023-02-22T20:23:26.047Z,22.21
2023-02-22T20:28:30.039Z,22.23
2023-02-22T20:33:34.556Z,22.27
2023-02-22T20:38:38.061Z,22.27
2023-02-22T20:43:41.195Z,22.32
2023-02-22T20:48:45.890Z,22.34
2023-02-22T20:53:48.943Z,22.30
2023-02-22T20:58:52.042Z,22.34
2023-02-22T21:04:00.415Z,22.40
2023-02-22T21:09:07.181Z,22.38
2023-02-22T21:14:12.350Z,22.43
2023-02-22T21:19:25.179Z,22.43
2023-02-22T21:24:29.783Z,22.49
2023-02-22T21:29:35.345Z,22.46
2023-02-22T21:34:40.347Z,22.53
2023-02-22T21:39:47.457Z,22.52
2023-02-22T21:44:54.390Z,22.45
2023-02-22T21:49:58.889Z,22.50
2023-02-22T21:55:01.658Z,22.54
2023-02-22T22:00:12.861Z,22.51
2023-02-22T22:05:31.507Z,22.44
2023-02-22T22:10:34.540Z,22.47
2023-02-22T22:15:37.522Z,22.47
2023-02-22T22:20:44.651Z,22.43
2023-02-22T22:25:51.000Z,22.40
2023-02-22T22:30:53.915Z,22.41
2023-02-22T22:35:59.259Z,22.39
2023-02-22T22:41:05.500Z,22.30
2023-02-22T22:46:09.498Z,22.32
2023-02-22T22:51:15.154Z,22.37
2023-02-22T22:56:19.561Z,22.39
2023-02-22T23:01:27.091Z,22.39
2023-02-22T23:06:33.704Z,22.36
2023-02-22T23:11:36.498Z,22.37
2023-02-22T23:16:39.783Z,22.39
2023-02-22T23:21:44.520Z,22.45
2023-02-22T23:26:49.383Z,22.37
2023-02-22T23:31:54.332Z,22.32
2023-02-22T23:36:58.593Z,22.34
2023-02-22T23:42:02.924Z,22.37
2023-02-22T23:47:05.840Z,22.33
2023-02-22T23:52:13.232Z,22.32
2023-02-22T23:57:17.498Z,22.27
